Time;durP1;ratioP1;P1;durP2;ratioP2;P2;SDS_P1;SDS_P2;PMS_P1;PMS_P2;Temp;Humidity;BMP_temperature;BMP_pressure;BME280_temperature;BME280_humidity;BME280_pressure;Samples;Min_cycle;Max_cycle;Signal;HPM_P1;HPM_P2
2023/10/06 00:00:47;;;;;;;30.95;23.80;;;;;;;11.45;100.00;101906.78;7397783;19;20011;-67
2023/10/06 00:03:16;;;;;;;34.80;23.65;;;;;;;11.48;100.00;101913.78;7400426;19;20018;-67
2023/10/06 00:05:48;;;;;;;38.58;24.40;;;;;;;11.50;100.00;101917.25;7400104;19;20021;-68
2023/10/06 00:08:18;;;;;;;32.75;23.77;;;;;;;11.54;100.00;101913.72;7398072;19;20476;-66
2023/10/06 00:10:54;;;;;;;34.80;23.45;;;;;;;11.55;100.00;101907.56;7400022;19;20098;-67
2023/10/06 00:13:31;;;;;;;36.22;23.05;;;;;;;11.58;100.00;101912.81;7400015;19;20041;-67
2023/10/06 00:16:07;;;;;;;37.45;25.25;;;;;;;11.59;100.00;101906.69;7397027;19;20346;-67
2023/10/06 00:18:37;;;;;;;38.00;26.23;;;;;;;11.61;100.00;101909.28;7395690;19;20031;-67
2023/10/06 00:21:14;;;;;;;39.38;25.90;;;;;;;11.62;100.00;101892.66;7399556;19;20409;-67
2023/10/06 00:23:44;;;;;;;39.13;28.70;;;;;;;11.66;100.00;101889.97;7399115;19;20540;-67
2023/10/06 00:26:16;;;;;;;43.80;26.88;;;;;;;11.69;100.00;101904.84;7399460;19;20025;-67
2023/10/06 00:28:44;;;;;;;37.78;26.63;;;;;;;11.72;100.00;101891.69;7397734;19;20066;-68
2023/10/06 00:31:13;;;;;;;37.97;27.40;;;;;;;11.73;100.00;101901.31;7399110;19;20035;-68
2023/10/06 00:33:43;;;;;;;42.55;28.23;;;;;;;11.75;100.00;101907.41;7396954;19;20346;-67
2023/10/06 00:36:14;;;;;;;38.65;28.45;;;;;;;11.75;100.00;101910.03;7396869;19;20074;-67
2023/10/06 00:38:45;;;;;;;43.97;29.00;;;;;;;11.76;100.00;101903.06;7396299;19;20018;-66
2023/10/06 00:41:14;;;;;;;41.17;27.88;;;;;;;11.77;100.00;101905.66;7397043;19;20033;-65
2023/10/06 00:43:43;;;;;;;42.67;30.05;;;;;;;11.78;100.00;101903.88;7400304;19;20018;-65
2023/10/06 00:46:12;;;;;;;45.45;30.30;;;;;;;11.79;100.00;101903.00;7403020;19;20069;-66
2023/10/06 00:48:42;;;;;;;45.17;30.23;;;;;;;11.79;100.00;101898.66;7399368;19;20070;-65
2023/10/06 00:51:19;;;;;;;50.33;29.77;;;;;;;11.81;100.00;101904.75;7398224;19;20011;-65
2023/10/06 00:53:47;;;;;;;51.75;31.55;;;;;;;11.83;100.00;101905.63;7399571;19;20486;-66
2023/10/06 00:56:17;;;;;;;55.50;33.03;;;;;;;11.86;100.00;101909.97;7398025;19;20481;-65
2023/10/06 00:58:46;;;;;;;47.53;31.52;;;;;;;11.88;100.00;101898.56;7395666;19;20036;-65
2023/10/06 01:01:17;;;;;;;51.53;32.42;;;;;;;11.92;100.00;101901.16;7397755;19;20536;-65
2023/10/06 01:03:48;;;;;;;54.22;34.63;;;;;;;11.95;100.00;101898.50;7398582;19;20011;-65
2023/10/06 01:06:23;;;;;;;51.78;32.53;;;;;;;11.97;100.00;101904.66;7398069;19;20020;-65
2023/10/06 01:09:06;;;;;;;53.80;32.67;;;;;;;12.00;100.00;101902.00;7396008;19;20091;-66
2023/10/06 01:11:43;;;;;;;50.92;32.40;;;;;;;12.02;100.00;101893.19;7396381;19;20010;-66
2023/10/06 01:14:14;;;;;;;51.33;32.25;;;;;;;12.05;100.00;101894.94;7398863;19;20023;-65
2023/10/06 01:16:43;;;;;;;49.45;30.75;;;;;;;12.07;100.00;101893.16;7397712;19;20010;-67
2023/10/06 01:19:25;;;;;;;46.65;32.28;;;;;;;12.09;100.00;101899.25;7395177;19;20422;-66
2023/10/06 01:21:57;;;;;;;48.92;32.58;;;;;;;12.11;100.00;101902.75;7397446;19;20023;-68
2023/10/06 01:24:29;;;;;;;46.25;30.70;;;;;;;12.12;100.00;101901.88;7395321;19;20381;-68
2023/10/06 01:27:05;;;;;;;48.28;31.25;;;;;;;12.13;100.00;101906.25;7397476;19;20066;-68
2023/10/06 01:29:35;;;;;;;48.13;30.75;;;;;;;12.14;100.00;101907.13;7396779;19;20006;-68
2023/10/06 01:32:06;;;;;;;47.58;31.23;;;;;;;12.15;100.00;101904.47;7396821;19;20536;-68
2023/10/06 01:34:38;;;;;;;43.65;29.73;;;;;;;12.16;100.00;101903.59;7396895;19;20002;-68
2023/10/06 01:37:07;;;;;;;46.08;30.50;;;;;;;12.18;100.00;101893.03;7397150;19;20014;-68
2023/10/06 01:39:38;;;;;;;48.53;31.67;;;;;;;12.20;100.00;101899.19;7394911;19;20031;-68
2023/10/06 01:42:16;;;;;;;50.97;30.80;;;;;;;12.19;100.00;101895.66;7397332;19;20018;-67
2023/10/06 01:44:45;;;;;;;42.78;29.45;;;;;;;12.21;100.00;101901.78;7395486;19;20015;-69
2023/10/06 01:47:18;;;;;;;46.20;29.27;;;;;;;12.22;100.00;101893.00;7394978;19;20082;-67
2023/10/06 01:49:47;;;;;;;47.57;29.43;;;;;;;12.24;100.00;101894.75;7396649;19;20010;-67
2023/10/06 01:52:19;;;;;;;42.45;28.63;;;;;;;12.24;100.00;101889.50;7396489;19;20464;-67
2023/10/06 01:54:50;;;;;;;45.67;28.13;;;;;;;12.25;100.00;101888.63;7396836;19;20010;-67
2023/10/06 01:57:19;;;;;;;42.10;27.80;;;;;;;12.24;100.00;101882.47;7396029;19;20086;-67
2023/10/06 01:59:49;;;;;;;41.85;26.75;;;;;;;12.25;100.00;101880.72;7394572;19;20010;-67
2023/10/06 02:02:23;;;;;;;40.95;26.67;;;;;;;12.24;100.00;101879.84;7396156;19;20082;-67
2023/10/06 02:04:56;;;;;;;41.58;27.58;;;;;;;12.25;100.00;101878.09;7394928;19;20014;-68
2023/10/06 02:07:25;;;;;;;40.95;27.13;;;;;;;12.24;100.00;101874.56;7395635;19;20359;-67
2023/10/06 02:09:56;;;;;;;37.60;26.73;;;;;;;12.25;100.00;101878.09;7396009;19;20082;-68
2023/10/06 02:12:24;;;;;;;40.83;26.35;;;;;;;12.24;100.00;101874.56;7396378;19;20363;-68
2023/10/06 02:14:53;;;;;;;36.22;26.33;;;;;;;12.23;100.00;101872.81;7394063;19;20070;-67
2023/10/06 02:17:21;;;;;;;40.88;26.75;;;;;;;12.24;100.00;101884.22;7394917;19;20494;-66
2023/10/06 02:19:50;;;;;;;37.33;26.58;;;;;;;12.23;100.00;101893.88;7393880;19;20015;-66
2023/10/06 02:22:20;;;;;;;40.65;26.00;;;;;;;12.22;100.00;101890.38;7395619;19;20074;-68
2023/10/06 02:24:48;;;;;;;35.83;25.42;;;;;;;12.21;100.00;101888.63;7393873;19;20035;-67
2023/10/06 02:27:19;;;;;;;36.35;25.77;;;;;;;12.22;100.00;101879.00;7394772;19;20070;-68
2023/10/06 02:29:49;;;;;;;42.72;24.85;;;;;;;12.21;100.00;101878.09;7395782;19;20014;-68
2023/10/06 02:32:18;;;;;;;40.75;26.15;;;;;;;12.21;100.00;101882.50;7395052;19;20506;-67
2023/10/06 02:34:48;;;;;;;41.55;24.30;;;;;;;12.21;100.00;101877.25;7398544;19;20054;-66
2023/10/06 02:37:22;;;;;;;36.58;24.67;;;;;;;12.20;100.00;101884.25;7394618;19;20010;-67
2023/10/06 02:39:50;;;;;;;;;;;;;;;12.18;100.00;101888.69;7393966;19;20019;-66
2023/10/06 02:42:21;;;;;;;33.78;24.27;;;;;;;12.18;100.00;101893.03;7399273;19;19922;-65
2023/10/06 02:44:51;;;;;;;36.30;25.50;;;;;;;12.18;100.00;101895.69;7402658;19;20014;-65
2023/10/06 02:47:21;;;;;;;36.25;25.02;;;;;;;12.18;100.00;101885.16;7403362;19;20070;-66
2023/10/06 02:49:59;;;;;;;42.33;24.20;;;;;;;12.18;100.00;101890.41;7399638;19;20018;-67
2023/10/06 02:52:36;;;;;;;39.03;25.30;;;;;;;12.18;100.00;101886.03;7399751;19;20007;-67
2023/10/06 02:55:09;;;;;;;46.42;26.90;;;;;;;12.16;100.00;101879.91;7402011;19;20017;-67
2023/10/06 02:57:50;;;;;;;41.03;27.45;;;;;;;12.16;100.00;101884.31;7399016;19;20014;-66
2023/10/06 03:00:32;;;;;;;39.75;25.35;;;;;;;12.16;100.00;101887.81;7401237;19;20011;-66
2023/10/06 03:03:03;;;;;;;44.38;27.73;;;;;;;12.16;100.00;101882.53;7401521;19;20011;-66
2023/10/06 03:05:38;;;;;;;40.97;26.77;;;;;;;12.14;100.00;101880.81;7400763;19;20026;-67
2023/10/06 03:08:08;;;;;;;36.70;26.13;;;;;;;12.15;100.00;101886.06;7400097;19;20362;-67
2023/10/06 03:10:42;;;;;;;37.75;25.90;;;;;;;12.14;100.00;101884.31;7400458;19;20074;-67
2023/10/06 03:13:15;;;;;;;36.15;25.45;;;;;;;12.13;100.00;101885.22;7397896;19;20006;-66
2023/10/06 03:15:45;;;;;;;38.65;27.13;;;;;;;12.11;100.00;101881.72;7398047;19;20011;-67
2023/10/06 03:18:15;;;;;;;35.95;25.45;;;;;;;12.10;100.00;101881.75;7399836;19;20025;-66
2023/10/06 03:20:46;;;;;;;45.67;27.55;;;;;;;12.08;100.00;101879.13;7399995;19;20018;-66
2023/10/06 03:23:23;;;;;;;36.08;26.38;;;;;;;12.07;100.00;101882.66;7401177;19;20492;-66
2023/10/06 03:25:53;;;;;;;37.25;27.90;;;;;;;12.06;100.00;101887.03;7400919;19;20364;-67
2023/10/06 03:28:36;;;;;;;47.10;32.45;;;;;;;12.05;100.00;101887.03;7399193;19;20032;-66
2023/10/06 03:31:21;;;;;;;42.30;30.23;;;;;;;12.05;100.00;101884.41;7399022;19;20014;-67
2023/10/06 03:33:50;;;;;;;38.72;27.67;;;;;;;12.03;100.00;101886.16;7401406;19;20025;-68
2023/10/06 03:36:26;;;;;;;42.53;28.33;;;;;;;12.02;100.00;101880.06;7401009;19;20042;-66
2023/10/06 03:39:11;;;;;;;40.83;28.48;;;;;;;12.02;100.00;101864.28;7397330;19;20074;-66
2023/10/06 03:41:44;;;;;;;44.78;28.10;;;;;;;12.02;100.00;101866.91;7397884;19;20006;-66
2023/10/06 03:44:18;;;;;;;42.25;28.67;;;;;;;12.02;100.00;101864.28;7401139;19;20030;-67
2023/10/06 03:46:46;;;;;;;;;;;;;;;12.03;100.00;101859.88;7401681;19;20011;-67
2023/10/06 03:49:15;;;;;;;42.50;27.50;;;;;;;12.01;100.00;101856.41;7397664;19;19990;-66
2023/10/06 03:51:51;;;;;;;39.92;28.83;;;;;;;12.00;100.00;101855.50;7400297;19;20014;-67
2023/10/06 03:54:20;;;;;;;41.47;27.50;;;;;;;11.99;100.00;101858.16;7398339;19;20028;-66
2023/10/06 03:56:49;;;;;;;45.50;28.75;;;;;;;11.99;100.00;101860.78;7397521;19;20089;-66
2023/10/06 03:59:21;;;;;;;38.03;27.42;;;;;;;11.98;100.00;101869.56;7400711;19;20010;-67
2023/10/06 04:01:51;;;;;;;42.70;28.15;;;;;;;11.95;100.00;101875.69;7398112;19;20254;-66
2023/10/06 04:04:22;;;;;;;43.00;29.08;;;;;;;11.95;100.00;101872.22;7399103;19;20489;-66
2023/10/06 04:06:50;;;;;;;48.33;32.13;;;;;;;11.92;100.00;101878.38;7396849;19;20022;-66
2023/10/06 04:09:27;;;;;;;43.65;31.27;;;;;;;11.90;100.00;101875.75;7399256;19;20018;-67
2023/10/06 04:11:57;;;;;;;40.33;29.13;;;;;;;11.88;100.00;101872.25;7397720;19;20027;-68
2023/10/06 04:14:31;;;;;;;42.85;27.55;;;;;;;11.88;100.00;101872.25;7399129;19;20014;-67
2023/10/06 04:17:01;;;;;;;42.80;29.13;;;;;;;11.86;100.00;101873.16;7399554;19;20037;-67
2023/10/06 04:19:29;;;;;;;40.90;28.65;;;;;;;11.85;100.00;101877.56;7397181;19;20011;-68
2023/10/06 04:21:58;;;;;;;39.70;27.85;;;;;;;11.83;100.00;101879.31;7396962;19;20082;-67
2023/10/06 04:24:26;;;;;;;43.45;29.15;;;;;;;11.83;100.00;101881.09;7399829;19;20074;-68
2023/10/06 04:26:52;;;;;;;41.08;28.65;;;;;;;11.79;100.00;101877.59;7398561;19;20074;-66
2023/10/06 04:29:25;;;;;;;46.88;30.08;;;;;;;11.79;100.00;101874.09;7398825;19;20078;-67
2023/10/06 04:31:57;;;;;;;43.65;29.70;;;;;;;11.76;100.00;101877.63;7399129;19;20014;-66
2023/10/06 04:34:27;;;;;;;57.75;40.47;;;;;;;11.75;100.00;101870.59;7396605;19;20014;-68
2023/10/06 04:36:56;;;;;;;48.15;31.70;;;;;;;11.74;100.00;101869.75;7398180;19;20014;-67
2023/10/06 04:39:26;;;;;;;58.45;43.03;;;;;;;11.72;100.00;101873.28;7396801;19;20037;-67
2023/10/06 04:41:55;;;;;;;52.15;37.75;;;;;;;11.71;100.00;101872.41;7396308;19;20358;-67
2023/10/06 04:44:23;;;;;;;50.55;32.75;;;;;;;11.69;100.00;101878.53;7397864;19;20018;-67
2023/10/06 04:46:52;;;;;;;45.25;31.50;;;;;;;11.68;100.00;101880.31;7397431;19;20450;-68
2023/10/06 04:49:23;;;;;;;43.75;30.73;;;;;;;11.66;100.00;101881.22;7398326;19;20007;-67
2023/10/06 04:51:52;;;;;;;46.17;31.77;;;;;;;11.63;100.00;101887.38;7398656;19;20083;-67
2023/10/06 04:54:20;;;;;;;47.03;29.92;;;;;;;11.61;100.00;101880.38;7395858;19;20012;-68
2023/10/06 04:56:52;;;;;;;51.97;31.42;;;;;;;11.57;100.00;101888.31;7395098;19;20505;-67
2023/10/06 04:59:20;;;;;;;50.95;32.75;;;;;;;11.56;100.00;101883.03;7395085;19;20419;-67
2023/10/06 05:01:49;;;;;;;53.90;32.28;;;;;;;11.54;100.00;101882.19;7395321;19;20066;-67
2023/10/06 05:04:18;;;;;;;48.83;32.47;;;;;;;11.50;100.00;101876.09;7396141;19;20014;-67
2023/10/06 05:06:52;;;;;;;53.10;32.75;;;;;;;11.48;100.00;101877.84;7397460;19;20014;-66
2023/10/06 05:09:21;;;;;;;57.97;34.00;;;;;;;11.46;100.00;101871.75;7398299;19;20015;-67
2023/10/06 05:11:49;;;;;;;51.03;33.70;;;;;;;11.46;100.00;101873.47;7393780;19;20015;-67
2023/10/06 05:14:18;;;;;;;51.08;33.83;;;;;;;11.45;100.00;101877.88;7396500;19;20022;-67
2023/10/06 05:16:46;;;;;;;56.90;33.15;;;;;;;11.44;100.00;101876.13;7395175;19;20023;-67
2023/10/06 05:19:17;;;;;;;52.38;33.65;;;;;;;11.42;100.00;101877.88;7396525;19;20044;-66
2023/10/06 05:21:45;;;;;;;59.33;33.90;;;;;;;11.42;100.00;101875.25;7394149;19;20018;-67
2023/10/06 05:24:16;;;;;;;50.78;32.65;;;;;;;11.40;100.00;101882.28;7393295;19;20027;-67
2023/10/06 05:26:44;;;;;;;55.95;32.92;;;;;;;11.39;100.00;101872.66;7395828;19;20372;-67
2023/10/06 05:29:14;;;;;;;51.67;31.63;;;;;;;11.37;100.00;101870.06;7396247;19;20014;-67
2023/10/06 05:31:43;;;;;;;52.10;31.52;;;;;;;11.37;100.00;101871.78;7395406;19;20339;-67
2023/10/06 05:34:17;;;;;;;50.20;31.95;;;;;;;11.36;100.00;101878.81;7396325;19;20073;-66
2023/10/06 05:36:45;;;;;;;;;;;;;;;11.35;100.00;101877.06;7395383;19;20010;-66
2023/10/06 05:39:17;;;;;;;48.58;28.40;;;;;;;11.35;100.00;101876.19;7395819;19;19974;-66
2023/10/06 05:41:47;;;;;;;46.10;30.20;;;;;;;11.33;100.00;101878.81;7394357;19;20081;-66
2023/10/06 05:44:15;;;;;;;44.67;28.83;;;;;;;11.32;100.00;101882.34;7396196;19;20014;-66
2023/10/06 05:46:44;;;;;;;39.10;28.73;;;;;;;11.32;100.00;101884.09;7393841;19;20497;-66
2023/10/06 05:49:12;;;;;;;43.30;27.08;;;;;;;11.31;100.00;101882.34;7394381;19;20373;-67
2023/10/06 05:51:43;;;;;;;38.83;26.77;;;;;;;11.30;100.00;101888.47;7395013;19;20077;-67
2023/10/06 05:54:21;;;;;;;44.80;24.98;;;;;;;11.30;100.00;101888.47;7397727;19;20087;-66
2023/10/06 05:56:53;;;;;;;36.03;24.27;;;;;;;11.29;100.00;101881.50;7396101;19;20014;-67
2023/10/06 05:59:22;;;;;;;33.28;23.42;;;;;;;11.28;100.00;101882.38;7395879;19;20018;-67
2023/10/06 06:01:56;;;;;;;36.25;23.10;;;;;;;11.27;100.00;101878.00;7393766;19;20505;-66
2023/10/06 06:04:27;;;;;;;;;;;;;;;11.26;100.00;101871.88;7394565;19;20002;-66
2023/10/06 06:06:57;;;;;;;33.15;21.08;;;;;;;11.24;100.00;101879.75;7395722;19;19911;-67
2023/10/06 06:09:27;;;;;;;28.42;19.80;;;;;;;11.23;100.00;101882.38;7395365;19;20015;-67
2023/10/06 06:11:59;;;;;;;25.55;19.45;;;;;;;11.25;100.00;101885.88;7392720;19;20541;-67
2023/10/06 06:14:34;;;;;;;30.63;18.75;;;;;;;11.24;100.00;101878.88;7396093;19;20010;-67
2023/10/06 06:17:03;;;;;;;27.13;18.85;;;;;;;11.25;100.00;101885.88;7392722;19;20018;-66
2023/10/06 06:19:32;;;;;;;26.95;17.55;;;;;;;11.25;100.00;101881.50;7394167;19;20010;-67
2023/10/06 06:22:05;;;;;;;26.27;17.08;;;;;;;11.27;100.00;101876.22;7393784;19;20014;-67
2023/10/06 06:24:34;;;;;;;29.70;16.95;;;;;;;11.27;100.00;101889.34;7395026;19;20485;-67
2023/10/06 06:27:05;;;;;;;23.52;16.83;;;;;;;11.30;100.00;101896.34;7393098;19;20553;-67
2023/10/06 06:29:34;;;;;;;25.67;18.42;;;;;;;11.34;100.00;101900.72;7392536;19;20007;-67
2023/10/06 06:32:11;;;;;;;26.92;17.38;;;;;;;11.37;100.00;101895.44;7392037;19;20006;-67
2023/10/06 06:34:41;;;;;;;24.58;15.45;;;;;;;11.42;100.00;101893.66;7395146;19;20014;-67
2023/10/06 06:37:12;;;;;;;21.50;16.38;;;;;;;11.46;100.00;101874.38;7393463;19;20047;-67
2023/10/06 06:39:44;;;;;;;21.17;15.88;;;;;;;11.51;100.00;101880.47;7392052;19;20357;-67
2023/10/06 06:42:15;;;;;;;24.83;16.92;;;;;;;11.57;100.00;101890.94;7392553;19;20078;-67
2023/10/06 06:44:47;;;;;;;18.20;14.75;;;;;;;11.63;100.00;101886.50;7394409;19;20015;-64
2023/10/06 06:47:18;;;;;;;18.45;14.65;;;;;;;11.67;100.00;101891.72;7394033;19;20029;-68
2023/10/06 06:49:48;;;;;;;19.85;14.02;;;;;;;11.71;100.00;101887.31;7394466;19;20018;-66
2023/10/06 06:52:16;;;;;;;20.35;14.05;;;;;;;11.74;100.00;101895.19;7394267;19;20468;-67
2023/10/06 06:54:46;;;;;;;21.88;13.43;;;;;;;11.77;100.00;101895.16;7394109;19;20052;-68
2023/10/06 06:57:19;;;;;;;18.08;13.75;;;;;;;11.81;100.00;101899.47;7391924;19;20070;-67
2023/10/06 06:59:49;;;;;;;19.00;13.10;;;;;;;11.86;100.00;101902.94;7392852;19;20011;-67
2023/10/06 07:02:17;;;;;;;18.17;13.45;;;;;;;11.91;100.00;101892.41;7392641;19;20019;-67
2023/10/06 07:04:47;;;;;;;18.98;13.90;;;;;;;11.95;100.00;101880.94;7393384;19;20074;-67
2023/10/06 07:07:15;;;;;;;19.15;12.65;;;;;;;12.00;100.00;101880.94;7391555;19;20010;-67
2023/10/06 07:09:44;;;;;;;15.90;11.50;;;;;;;12.01;100.00;101877.44;7392132;19;20484;-68
2023/10/06 07:12:12;;;;;;;17.42;11.60;;;;;;;12.08;100.00;101880.88;7394656;19;20018;-67
2023/10/06 07:14:43;;;;;;;18.55;12.32;;;;;;;12.12;100.00;101880.84;7393720;19;20077;-67
2023/10/06 07:17:11;;;;;;;15.05;10.57;;;;;;;12.16;100.00;101886.94;7392515;19;20014;-66
2023/10/06 07:19:41;;;;;;;17.95;10.95;;;;;;;12.20;100.00;101886.88;7393793;19;20025;-67
2023/10/06 07:22:10;;;;;;;16.95;10.70;;;;;;;12.24;100.00;101889.50;7392702;19;20049;-67
2023/10/06 07:24:40;;;;;;;17.52;11.55;;;;;;;12.29;100.00;101892.94;7391835;19;20037;-67
2023/10/06 07:27:08;;;;;;;13.85;10.07;;;;;;;12.34;100.00;101889.38;7393345;19;20022;-67
2023/10/06 07:29:37;;;;;;;15.18;10.63;;;;;;;12.39;100.00;101878.78;7401056;19;20032;-66
2023/10/06 07:32:08;;;;;;;13.25;9.82;;;;;;;12.47;100.00;101861.16;7397741;19;20011;-67
2023/10/06 07:34:39;;;;;;;14.23;9.20;;;;;;;12.54;100.00;101865.44;7398246;19;20023;-66
2023/10/06 07:37:07;;;;;;;10.80;8.70;;;;;;;12.61;100.00;101870.66;7399915;19;20496;-67
2023/10/06 07:39:36;;;;;;;13.30;9.38;;;;;;;12.64;100.00;101871.47;7399281;19;20014;-67
2023/10/06 07:42:06;;;;;;;17.17;9.10;;;;;;;12.69;100.00;101880.19;7397762;19;20037;-67
2023/10/06 07:44:35;;;;;;;13.60;8.48;;;;;;;12.73;100.00;101881.03;7398824;19;20018;-65
2023/10/06 07:47:04;;;;;;;13.07;8.55;;;;;;;12.77;100.00;101874.81;7399674;19;20010;-67
2023/10/06 07:49:37;;;;;;;11.27;8.27;;;;;;;12.82;100.00;101875.63;7397603;19;20033;-67
2023/10/06 07:52:07;;;;;;;14.60;8.18;;;;;;;12.86;100.00;101869.47;7400669;19;20014;-66
2023/10/06 07:54:36;;;;;;;14.73;8.07;;;;;;;12.91;100.00;101856.22;7399992;19;20074;-66
2023/10/06 07:57:05;;;;;;;12.48;6.80;;;;;;;12.97;100.00;101853.50;7399191;19;20422;-67
2023/10/06 07:59:36;;;;;;;18.52;7.88;;;;;;;13.01;100.00;101844.66;7399664;19;20073;-66
2023/10/06 08:02:05;;;;;;;12.07;7.85;;;;;;;13.08;99.90;101849.81;7398604;19;20006;-72
2023/10/06 08:04:36;;;;;;;13.75;6.57;;;;;;;13.12;99.67;101846.28;7399590;19;20021;-66
2023/10/06 08:07:05;;;;;;;12.57;7.35;;;;;;;13.18;99.59;101848.78;7399325;19;20095;-67
2023/10/06 08:09:35;;;;;;;10.93;6.60;;;;;;;13.23;99.17;101857.53;7399588;19;20022;-68
2023/10/06 08:12:08;;;;;;;10.82;6.22;;;;;;;13.27;98.23;101855.69;7397000;19;20071;-67
2023/10/06 08:14:37;;;;;;;8.43;6.28;;;;;;;13.31;97.67;101858.28;7399691;19;20033;-67
2023/10/06 08:17:05;;;;;;;11.52;6.40;;;;;;;13.34;96.81;101850.34;7398747;19;20509;-66
2023/10/06 08:19:36;;;;;;;13.40;6.65;;;;;;;13.40;97.29;101845.88;7399033;19;20014;-67
2023/10/06 08:22:06;;;;;;;9.20;6.88;;;;;;;13.45;97.28;101844.91;7397699;19;20013;-67
2023/10/06 08:24:35;;;;;;;15.65;7.97;;;;;;;13.51;96.16;101843.94;7398847;19;20358;-66
2023/10/06 08:27:03;;;;;;;16.08;5.82;;;;;;;13.55;95.74;101844.75;7398254;19;20074;-67
2023/10/06 08:29:33;;;;;;;10.18;6.03;;;;;;;13.60;95.45;101838.50;7398459;19;20082;-66
2023/10/06 08:32:02;;;;;;;8.27;6.07;;;;;;;13.64;95.16;101831.44;7399015;19;20017;-67
2023/10/06 08:34:30;;;;;;;10.07;5.38;;;;;;;13.68;94.73;101819.91;7398390;19;20006;-66
2023/10/06 08:37:06;;;;;;;10.55;5.38;;;;;;;13.73;94.30;101828.63;7397858;19;20010;-67
2023/10/06 08:39:38;;;;;;;9.57;4.60;;;;;;;13.78;94.13;101828.53;7395507;19;20381;-67
2023/10/06 08:42:12;;;;;;;11.00;5.40;;;;;;;13.82;93.79;101817.03;7397432;19;20013;-68
2023/10/06 08:44:41;;;;;;;6.75;4.82;;;;;;;13.84;93.41;101816.09;7396627;19;20011;-67
2023/10/06 08:47:14;;;;;;;7.32;4.85;;;;;;;13.84;93.26;101810.84;7397136;19;20393;-67
2023/10/06 08:49:46;;;;;;;16.57;5.10;;;;;;;13.85;92.95;101811.72;7398789;19;20018;-67
2023/10/06 08:52:22;;;;;;;12.88;4.60;;;;;;;13.83;92.36;101801.16;7398151;19;20017;-67
2023/10/06 08:54:51;;;;;;;10.45;5.20;;;;;;;13.85;92.78;101803.81;7398481;19;20015;-67
2023/10/06 08:57:19;;;;;;;7.80;4.47;;;;;;;13.87;92.64;101798.50;7397344;19;20127;-65
2023/10/06 08:59:48;;;;;;;9.63;4.78;;;;;;;13.89;92.60;101812.50;7397896;19;20074;-67
2023/10/06 09:02:17;;;;;;;10.85;4.57;;;;;;;13.92;92.80;101820.38;7395271;19;20083;-66
2023/10/06 09:04:46;;;;;;;9.00;4.75;;;;;;;13.95;92.03;101817.66;7398526;19;20014;-67
2023/10/06 09:07:20;;;;;;;10.07;4.50;;;;;;;14.00;91.63;101807.91;7395620;19;20021;-67
2023/10/06 09:09:49;;;;;;;10.88;4.38;;;;;;;14.05;91.47;101803.41;7396084;19;20026;-67
2023/10/06 09:12:26;;;;;;;11.38;4.70;;;;;;;14.11;91.12;101795.38;7397548;19;20031;-67
2023/10/06 09:14:56;;;;;;;7.43;4.43;;;;;;;14.19;90.66;101805.75;7397101;19;20007;-67
2023/10/06 09:17:32;;;;;;;9.80;4.22;;;;;;;14.25;90.52;101805.66;7394296;19;20014;-68
2023/10/06 09:20:02;;;;;;;7.47;4.10;;;;;;;14.33;89.86;101806.38;7396709;19;20366;-67
2023/10/06 09:22:46;;;;;;;9.70;4.72;;;;;;;14.43;87.76;101799.16;7396328;19;20036;-66
2023/10/06 09:25:15;;;;;;;10.13;4.57;;;;;;;14.57;87.88;101803.25;7397185;19;20006;-68
2023/10/06 09:27:48;;;;;;;10.68;4.38;;;;;;;14.69;87.75;101789.81;7395091;19;20347;-67
2023/10/06 09:30:20;;;;;;;6.90;3.80;;;;;;;14.83;86.99;101782.44;7396980;19;20022;-67
2023/10/06 09:32:49;;;;;;;7.30;4.03;;;;;;;14.95;85.11;101770.72;7396609;19;20417;-67
2023/10/06 09:35:22;;;;;;;12.65;4.07;;;;;;;15.07;84.22;101760.75;7395701;19;20010;-66
2023/10/06 09:37:54;;;;;;;6.20;3.42;;;;;;;15.17;84.76;101770.19;7395509;19;20077;-67
2023/10/06 09:40:23;;;;;;;9.40;3.00;;;;;;;15.22;82.94;101773.59;7393523;19;20019;-68
2023/10/06 09:42:54;;;;;;;9.88;4.18;;;;;;;15.27;82.66;101773.50;7394339;19;20010;-68
2023/10/06 09:45:24;;;;;;;6.80;3.13;;;;;;;15.31;81.47;101764.56;7395777;19;20516;-67
2023/10/06 09:47:56;;;;;;;6.78;3.47;;;;;;;15.35;81.10;101760.94;7395427;19;20037;-67
2023/10/06 09:50:32;;;;;;;6.40;2.80;;;;;;;15.41;79.95;101755.47;7396191;19;20022;-67
2023/10/06 09:53:05;;;;;;;5.10;2.45;;;;;;;15.49;79.25;101755.28;7396520;19;20098;-68
2023/10/06 09:55:35;;;;;;;8.65;3.40;;;;;;;15.59;79.01;101774.44;7396426;19;20018;-67
2023/10/06 09:58:07;;;;;;;10.18;3.55;;;;;;;15.68;78.81;101762.75;7394482;19;20022;-66
2023/10/06 10:00:39;;;;;;;7.70;2.65;;;;;;;15.78;78.55;101759.81;7394433;19;20074;-67
2023/10/06 10:03:09;;;;;;;7.53;3.13;;;;;;;15.88;77.71;101741.91;7394754;19;20014;-67
2023/10/06 10:05:38;;;;;;;4.65;2.83;;;;;;;15.98;77.08;101741.69;7393438;19;20022;-67
2023/10/06 10:08:10;;;;;;;8.13;3.17;;;;;;;16.06;75.87;101748.50;7394370;19;20018;-67
2023/10/06 10:10:44;;;;;;;6.78;3.42;;;;;;;16.17;75.79;101757.91;7394888;19;20069;-67
2023/10/06 10:13:38;;;;;;;7.47;2.92;;;;;;;16.26;72.65;101755.84;7395392;19;20066;-67
2023/10/06 10:16:18;;;;;;;8.32;3.00;;;;;;;16.35;73.67;101738.81;7393242;19;20074;-67
2023/10/06 10:18:56;;;;;;;7.53;2.88;;;;;;;16.48;73.05;101735.78;7393150;19;20074;-67
2023/10/06 10:21:25;;;;;;;5.75;2.83;;;;;;;16.60;72.81;101730.09;7395322;19;20018;-66
2023/10/06 10:23:57;;;;;;;9.10;2.70;;;;;;;16.71;72.93;101714.72;7392701;19;20077;-67
2023/10/06 10:26:30;;;;;;;6.63;2.60;;;;;;;16.82;72.23;101705.56;7393161;19;20014;-68
2023/10/06 10:29:28;;;;;;;6.18;2.58;;;;;;;16.94;71.09;101700.75;7392627;19;20019;-67
2023/10/06 10:32:03;;;;;;;10.95;3.05;;;;;;;17.03;68.87;101698.72;7392820;19;20010;-68
2023/10/06 10:34:38;;;;;;;6.20;2.75;;;;;;;17.10;70.43;101708.22;7393613;19;20099;-67
2023/10/06 10:37:20;;;;;;;7.50;2.97;;;;;;;17.12;67.35;101719.63;7392137;19;20006;-68
2023/10/06 10:39:55;;;;;;;7.85;2.80;;;;;;;17.12;66.68;101722.25;7392963;19;20011;-67
2023/10/06 10:42:25;;;;;;;9.63;2.25;;;;;;;17.13;69.21;101725.81;7393045;19;20037;-67
2023/10/06 10:45:30;;;;;;;6.53;2.70;;;;;;;17.12;66.16;101722.25;7394667;19;20015;-67
2023/10/06 10:48:00;;;;;;;10.30;2.50;;;;;;;17.14;68.40;101703.69;7393831;19;20011;-67
2023/10/06 10:51:05;;;;;;;6.95;2.60;;;;;;;17.14;66.65;101695.72;7391860;19;20010;-67
2023/10/06 10:53:37;;;;;;;6.43;2.95;;;;;;;17.20;68.65;101695.50;7392521;19;20035;-68
2023/10/06 10:56:13;;;;;;;5.15;2.90;;;;;;;17.25;68.07;101690.91;7395543;19;20007;-68
2023/10/06 10:58:57;;;;;;;6.78;3.10;;;;;;;17.28;65.25;101695.25;7392752;19;20083;-67
2023/10/06 11:01:29;;;;;;;7.82;3.20;;;;;;;17.30;67.39;101694.28;7391489;19;20014;-68
2023/10/06 11:04:24;;;;;;;8.80;2.80;;;;;;;17.30;63.19;101691.63;7398757;19;20018;-68
2023/10/06 11:06:55;;;;;;;4.43;2.17;;;;;;;17.32;66.72;101688.91;7398063;19;20015;-66
2023/10/06 11:09:29;;;;;;;6.43;2.45;;;;;;;17.29;65.34;101667.78;7401119;19;20010;-67
2023/10/06 11:12:05;;;;;;;6.57;2.50;;;;;;;17.30;64.36;101669.53;7398429;19;20035;-68
2023/10/06 11:14:40;;;;;;;6.13;2.15;;;;;;;17.30;65.80;101653.59;7401731;19;20044;-65
2023/10/06 11:17:11;;;;;;;5.18;2.22;;;;;;;17.31;65.01;101668.59;7399488;19;20405;-67
2023/10/06 11:19:41;;;;;;;8.27;2.95;;;;;;;17.30;64.78;101670.41;7401033;19;20014;-67
2023/10/06 11:22:13;;;;;;;4.18;1.83;;;;;;;17.31;64.47;101660.66;7399268;19;20035;-67
2023/10/06 11:24:44;;;;;;;5.32;1.83;;;;;;;17.29;65.15;101658.06;7399638;19;20011;-68
2023/10/06 11:27:17;;;;;;;4.15;1.90;;;;;;;17.32;63.63;101659.75;7399459;19;20018;-67
2023/10/06 11:29:47;;;;;;;5.28;2.10;;;;;;;17.32;64.49;101665.91;7399392;19;20087;-68